sensor_id;sensor_type;location;lat;lon;timestamp;temperature;humidity
42615;DHT22;28754;47.700;7.924;2023-05-01T00:02:31;11.30;99.90
42615;DHT22;28754;47.700;7.924;2023-05-01T00:05:19;11.30;99.90
42615;DHT22;28754;47.700;7.924;2023-05-01T00:08:06;11.40;99.90
42615;DHT22;28754;47.700;7.924;2023-05-01T00:10:53;11.40;99.90
42615;DHT22;28754;47.700;7.924;2023-05-01T00:13:40;11.30;99.90
42615;DHT22;28754;47.700;7.924;2023-05-01T00:16:27;11.30;99.90
42615;DHT22;28754;47.700;7.924;2023-05-01T00:19:13;11.40;99.90
42615;DHT22;28754;47.700;7.924;2023-05-01T00:22:03;11.30;99.90
42615;DHT22;28754;47.700;7.924;2023-05-01T00:24:50;11.30;99.90
42615;DHT22;28754;47.700;7.924;2023-05-01T00:27:37;11.30;99.90
42615;DHT22;28754;47.700;7.924;2023-05-01T00:30:23;11.30;99.90
42615;DHT22;28754;47.700;7.924;2023-05-01T00:33:10;11.30;99.90
42615;DHT22;28754;47.700;7.924;2023-05-01T00:35:58;11.30;99.90
42615;DHT22;28754;47.700;7.924;2023-05-01T00:38:45;11.30;99.90
42615;DHT22;28754;47.700;7.924;2023-05-01T00:41:31;11.30;99.90
42615;DHT22;28754;47.700;7.924;2023-05-01T00:44:19;11.30;99.90
42615;DHT22;28754;47.700;7.924;2023-05-01T00:47:06;11.30;99.90
42615;DHT22;28754;47.700;7.924;2023-05-01T00:49:54;11.30;99.90
42615;DHT22;28754;47.700;7.924;2023-05-01T00:52:41;11.40;99.90
42615;DHT22;28754;47.700;7.924;2023-05-01T00:55:27;11.40;99.90
42615;DHT22;28754;47.700;7.924;2023-05-01T00:58:17;11.40;99.90
42615;DHT22;28754;47.700;7.924;2023-05-01T01:01:04;11.30;99.90
42615;DHT22;28754;47.700;7.924;2023-05-01T01:03:54;11.30;99.90
42615;DHT22;28754;47.700;7.924;2023-05-01T01:13:21;11.20;99.90
42615;DHT22;28754;47.700;7.924;2023-05-01T01:16:33;11.20;99.90
42615;DHT22;28754;47.700;7.924;2023-05-01T01:19:45;11.30;99.90
42615;DHT22;28754;47.700;7.924;2023-05-01T01:22:42;11.40;99.90
42615;DHT22;28754;47.700;7.924;2023-05-01T01:35:23;11.40;99.90
42615;DHT22;28754;47.700;7.924;2023-05-01T01:38:19;11.40;99.90
42615;DHT22;28754;47.700;7.924;2023-05-01T01:41:18;11.40;99.90
42615;DHT22;28754;47.700;7.924;2023-05-01T01:44:23;11.50;99.90
42615;DHT22;28754;47.700;7.924;2023-05-01T01:47:16;11.50;99.90
42615;DHT22;28754;47.700;7.924;2023-05-01T01:50:07;11.40;99.90
42615;DHT22;28754;47.700;7.924;2023-05-01T01:52:58;11.30;99.90
42615;DHT22;28754;47.700;7.924;2023-05-01T01:55:47;11.20;99.90
42615;DHT22;28754;47.700;7.924;2023-05-01T01:58:36;11.10;99.90
42615;DHT22;28754;47.700;7.924;2023-05-01T02:02:07;11.10;99.90
42615;DHT22;28754;47.700;7.924;2023-05-01T02:05:31;11.20;99.90
42615;DHT22;28754;47.700;7.924;2023-05-01T02:08:31;11.20;99.90
42615;DHT22;28754;47.700;7.924;2023-05-01T02:11:20;11.20;99.90
42615;DHT22;28754;47.700;7.924;2023-05-01T02:14:10;11.20;99.90
42615;DHT22;28754;47.700;7.924;2023-05-01T02:16:58;11.20;99.90
42615;DHT22;28754;47.700;7.924;2023-05-01T02:19:45;11.20;99.90
42615;DHT22;28754;47.700;7.924;2023-05-01T02:22:32;11.20;99.90
42615;DHT22;28754;47.700;7.924;2023-05-01T02:25:19;11.10;99.90
42615;DHT22;28754;47.700;7.924;2023-05-01T02:28:14;11.10;99.90
42615;DHT22;28754;47.700;7.924;2023-05-01T02:31:03;11.10;99.90
42615;DHT22;28754;47.700;7.924;2023-05-01T02:33:50;11.10;99.90
42615;DHT22;28754;47.700;7.924;2023-05-01T02:36:37;11.10;99.90
42615;DHT22;28754;47.700;7.924;2023-05-01T02:39:24;11.10;99.90
42615;DHT22;28754;47.700;7.924;2023-05-01T02:42:14;11.10;99.90
42615;DHT22;28754;47.700;7.924;2023-05-01T02:45:05;11.00;99.90
42615;DHT22;28754;47.700;7.924;2023-05-01T02:47:56;10.90;99.90
42615;DHT22;28754;47.700;7.924;2023-05-01T02:50:45;10.90;99.90
42615;DHT22;28754;47.700;7.924;2023-05-01T02:53:34;10.90;99.90
42615;DHT22;28754;47.700;7.924;2023-05-01T02:56:32;10.90;99.90
42615;DHT22;28754;47.700;7.924;2023-05-01T02:59:18;10.90;99.90
42615;DHT22;28754;47.700;7.924;2023-05-01T03:02:05;10.90;99.90
42615;DHT22;28754;47.700;7.924;2023-05-01T03:04:52;10.90;99.90
42615;DHT22;28754;47.700;7.924;2023-05-01T03:07:39;10.90;99.90
42615;DHT22;28754;47.700;7.924;2023-05-01T03:10:27;10.90;99.90
42615;DHT22;28754;47.700;7.924;2023-05-01T03:13:13;10.80;99.90
42615;DHT22;28754;47.700;7.924;2023-05-01T03:16:01;10.80;99.90
42615;DHT22;28754;47.700;7.924;2023-05-01T03:18:49;10.80;99.90
42615;DHT22;28754;47.700;7.924;2023-05-01T03:21:37;10.80;99.90
42615;DHT22;28754;47.700;7.924;2023-05-01T03:24:23;10.80;99.90
42615;DHT22;28754;47.700;7.924;2023-05-01T03:27:10;10.90;99.90
42615;DHT22;28754;47.700;7.924;2023-05-01T03:29:57;10.80;99.90
42615;DHT22;28754;47.700;7.924;2023-05-01T03:32:44;10.90;99.90
42615;DHT22;28754;47.700;7.924;2023-05-01T03:35:38;10.80;99.90
42615;DHT22;28754;47.700;7.924;2023-05-01T03:38:34;10.80;99.90
42615;DHT22;28754;47.700;7.924;2023-05-01T03:41:30;10.60;99.90
42615;DHT22;28754;47.700;7.924;2023-05-01T03:44:17;10.60;99.90
42615;DHT22;28754;47.700;7.924;2023-05-01T03:47:04;10.50;99.90
42615;DHT22;28754;47.700;7.924;2023-05-01T03:49:52;10.40;99.90
42615;DHT22;28754;47.700;7.924;2023-05-01T03:52:39;10.30;99.90
42615;DHT22;28754;47.700;7.924;2023-05-01T03:55:25;10.30;99.90
42615;DHT22;28754;47.700;7.924;2023-05-01T03:58:12;10.40;99.90
42615;DHT22;28754;47.700;7.924;2023-05-01T04:06:06;10.10;99.90
42615;DHT22;28754;47.700;7.924;2023-05-01T04:08:53;10.00;99.90
42615;DHT22;28754;47.700;7.924;2023-05-01T04:11:40;10.00;99.90
42615;DHT22;28754;47.700;7.924;2023-05-01T04:14:27;10.00;99.90
42615;DHT22;28754;47.700;7.924;2023-05-01T04:17:13;9.90;99.90
42615;DHT22;28754;47.700;7.924;2023-05-01T04:20:00;9.90;99.90
42615;DHT22;28754;47.700;7.924;2023-05-01T04:22:47;9.90;99.90
42615;DHT22;28754;47.700;7.924;2023-05-01T04:25:35;9.90;99.90
42615;DHT22;28754;47.700;7.924;2023-05-01T04:28:28;9.90;99.90
42615;DHT22;28754;47.700;7.924;2023-05-01T04:31:16;9.70;99.90
42615;DHT22;28754;47.700;7.924;2023-05-01T04:34:03;9.70;99.90
42615;DHT22;28754;47.700;7.924;2023-05-01T04:36:50;9.70;99.90
42615;DHT22;28754;47.700;7.924;2023-05-01T04:39:38;9.80;99.90
42615;DHT22;28754;47.700;7.924;2023-05-01T04:42:32;9.90;99.90
42615;DHT22;28754;47.700;7.924;2023-05-01T04:45:19;10.10;99.90
42615;DHT22;28754;47.700;7.924;2023-05-01T04:48:06;10.00;99.90
42615;DHT22;28754;47.700;7.924;2023-05-01T04:50:52;10.20;99.90
42615;DHT22;28754;47.700;7.924;2023-05-01T04:53:40;10.30;99.90
42615;DHT22;28754;47.700;7.924;2023-05-01T04:56:37;10.40;99.90
42615;DHT22;28754;47.700;7.924;2023-05-01T04:59:24;10.50;99.90
42615;DHT22;28754;47.700;7.924;2023-05-01T05:02:13;10.60;99.90
42615;DHT22;28754;47.700;7.924;2023-05-01T05:04:59;10.60;99.90
42615;DHT22;28754;47.700;7.924;2023-05-01T05:07:46;10.60;99.90
42615;DHT22;28754;47.700;7.924;2023-05-01T05:10:45;10.60;99.90
42615;DHT22;28754;47.700;7.924;2023-05-01T05:13:45;10.60;99.90
42615;DHT22;28754;47.700;7.924;2023-05-01T05:16:32;10.50;99.90
42615;DHT22;28754;47.700;7.924;2023-05-01T05:19:20;10.60;99.90
42615;DHT22;28754;47.700;7.924;2023-05-01T05:22:07;10.70;99.90
42615;DHT22;28754;47.700;7.924;2023-05-01T05:25:08;10.80;99.90
42615;DHT22;28754;47.700;7.924;2023-05-01T05:27:54;10.90;99.90
42615;DHT22;28754;47.700;7.924;2023-05-01T05:30:41;10.90;99.90
42615;DHT22;28754;47.700;7.924;2023-05-01T05:33:30;11.00;99.90
42615;DHT22;28754;47.700;7.924;2023-05-01T05:36:17;11.00;99.90
42615;DHT22;28754;47.700;7.924;2023-05-01T05:39:05;11.10;99.90
42615;DHT22;28754;47.700;7.924;2023-05-01T05:41:53;11.10;99.90
42615;DHT22;28754;47.700;7.924;2023-05-01T05:44:40;11.00;99.90
42615;DHT22;28754;47.700;7.924;2023-05-01T05:47:28;10.90;99.90
42615;DHT22;28754;47.700;7.924;2023-05-01T05:50:16;10.90;99.90
42615;DHT22;28754;47.700;7.924;2023-05-01T05:53:04;11.00;99.90
42615;DHT22;28754;47.700;7.924;2023-05-01T05:55:52;11.00;99.90
42615;DHT22;28754;47.700;7.924;2023-05-01T05:58:38;11.00;99.90
42615;DHT22;28754;47.700;7.924;2023-05-01T06:01:25;11.10;99.90
42615;DHT22;28754;47.700;7.924;2023-05-01T06:04:12;11.00;99.90
42615;DHT22;28754;47.700;7.924;2023-05-01T06:07:03;11.10;99.90
42615;DHT22;28754;47.700;7.924;2023-05-01T06:09:51;11.00;99.90
42615;DHT22;28754;47.700;7.924;2023-05-01T06:12:38;11.10;99.90
42615;DHT22;28754;47.700;7.924;2023-05-01T06:15:27;11.10;99.90
42615;DHT22;28754;47.700;7.924;2023-05-01T06:18:15;11.10;99.90
42615;DHT22;28754;47.700;7.924;2023-05-01T06:21:02;11.00;99.90
42615;DHT22;28754;47.700;7.924;2023-05-01T06:23:51;10.90;99.90
42615;DHT22;28754;47.700;7.924;2023-05-01T06:26:52;10.80;99.90
42615;DHT22;28754;47.700;7.924;2023-05-01T06:29:39;10.40;99.90
42615;DHT22;28754;47.700;7.924;2023-05-01T06:32:26;10.20;99.90
42615;DHT22;28754;47.700;7.924;2023-05-01T06:35:13;10.20;99.90
42615;DHT22;28754;47.700;7.924;2023-05-01T06:38:00;10.40;99.90
42615;DHT22;28754;47.700;7.924;2023-05-01T06:41:06;10.50;99.90
42615;DHT22;28754;47.700;7.924;2023-05-01T06:44:32;10.40;99.90
42615;DHT22;28754;47.700;7.924;2023-05-01T06:47:45;10.70;99.90
42615;DHT22;28754;47.700;7.924;2023-05-01T06:50:44;10.80;99.90
42615;DHT22;28754;47.700;7.924;2023-05-01T06:54:18;10.50;99.90
42615;DHT22;28754;47.700;7.924;2023-05-01T06:57:43;10.40;99.90
42615;DHT22;28754;47.700;7.924;2023-05-01T07:00:36;10.10;99.90
42615;DHT22;28754;47.700;7.924;2023-05-01T07:03:47;9.90;99.90
42615;DHT22;28754;47.700;7.924;2023-05-01T07:11:02;9.90;99.90
42615;DHT22;28754;47.700;7.924;2023-05-01T07:13:54;9.80;99.90
42615;DHT22;28754;47.700;7.924;2023-05-01T07:49:52;10.60;99.90
42615;DHT22;28754;47.700;7.924;2023-05-01T07:57:10;10.70;99.90
42615;DHT22;28754;47.700;7.924;2023-05-01T08:30:35;10.00;99.90
42615;DHT22;28754;47.700;7.924;2023-05-01T08:33:53;10.00;99.90
42615;DHT22;28754;47.700;7.924;2023-05-01T08:37:02;10.10;99.90
42615;DHT22;28754;47.700;7.924;2023-05-01T08:39:49;10.40;99.90
42615;DHT22;28754;47.700;7.924;2023-05-01T08:43:07;10.20;99.90
42615;DHT22;28754;47.700;7.924;2023-05-01T08:46:00;10.30;99.90
42615;DHT22;28754;47.700;7.924;2023-05-01T08:48:55;10.40;99.90
42615;DHT22;28754;47.700;7.924;2023-05-01T08:51:45;10.60;99.90
42615;DHT22;28754;47.700;7.924;2023-05-01T08:54:37;10.90;99.90
42615;DHT22;28754;47.700;7.924;2023-05-01T08:57:30;11.00;99.90
42615;DHT22;28754;47.700;7.924;2023-05-01T09:00:21;11.20;99.90
42615;DHT22;28754;47.700;7.924;2023-05-01T09:03:28;11.20;99.90
42615;DHT22;28754;47.700;7.924;2023-05-01T09:06:32;11.60;99.90
42615;DHT22;28754;47.700;7.924;2023-05-01T09:09:18;11.30;99.90
42615;DHT22;28754;47.700;7.924;2023-05-01T09:12:35;11.20;99.90
42615;DHT22;28754;47.700;7.924;2023-05-01T09:15:27;10.90;99.90
42615;DHT22;28754;47.700;7.924;2023-05-01T09:18:15;11.10;99.90
42615;DHT22;28754;47.700;7.924;2023-05-01T09:21:02;11.20;99.90
42615;DHT22;28754;47.700;7.924;2023-05-01T09:24:15;11.20;99.90
42615;DHT22;28754;47.700;7.924;2023-05-01T09:27:40;11.00;99.90
42615;DHT22;28754;47.700;7.924;2023-05-01T09:30:35;11.50;99.90
42615;DHT22;28754;47.700;7.924;2023-05-01T09:33:22;11.70;99.90
42615;DHT22;28754;47.700;7.924;2023-05-01T09:36:16;11.90;99.90
42615;DHT22;28754;47.700;7.924;2023-05-01T09:39:24;11.70;99.90
42615;DHT22;28754;47.700;7.924;2023-05-01T09:42:25;11.60;99.90
42615;DHT22;28754;47.700;7.924;2023-05-01T09:50:35;12.40;99.90
42615;DHT22;28754;47.700;7.924;2023-05-01T09:54:20;11.90;99.90
42615;DHT22;28754;47.700;7.924;2023-05-01T10:01:37;12.80;99.90
42615;DHT22;28754;47.700;7.924;2023-05-01T10:04:42;13.40;99.90
42615;DHT22;28754;47.700;7.924;2023-05-01T10:07:39;13.70;99.90
42615;DHT22;28754;47.700;7.924;2023-05-01T10:11:22;13.90;99.90
42615;DHT22;28754;47.700;7.924;2023-05-01T10:14:34;13.80;99.90
42615;DHT22;28754;47.700;7.924;2023-05-01T10:18:07;13.70;99.90
42615;DHT22;28754;47.700;7.924;2023-05-01T10:21:03;13.40;99.90
42615;DHT22;28754;47.700;7.924;2023-05-01T10:27:25;12.90;99.90
42615;DHT22;28754;47.700;7.924;2023-05-01T10:34:57;12.90;99.90
42615;DHT22;28754;47.700;7.924;2023-05-01T10:38:06;12.60;99.90
42615;DHT22;28754;47.700;7.924;2023-05-01T10:40:56;13.40;99.90
42615;DHT22;28754;47.700;7.924;2023-05-01T10:43:43;13.90;99.90
42615;DHT22;28754;47.700;7.924;2023-05-01T10:46:30;13.40;99.90
42615;DHT22;28754;47.700;7.924;2023-05-01T10:49:17;12.90;99.90
42615;DHT22;28754;47.700;7.924;2023-05-01T11:11:49;13.80;99.90
42615;DHT22;28754;47.700;7.924;2023-05-01T11:42:38;13.90;99.90
42615;DHT22;28754;47.700;7.924;2023-05-01T11:45:25;13.90;99.90
42615;DHT22;28754;47.700;7.924;2023-05-01T11:48:20;14.30;99.90
42615;DHT22;28754;47.700;7.924;2023-05-01T11:51:17;14.10;99.90
42615;DHT22;28754;47.700;7.924;2023-05-01T11:54:45;13.80;99.90
42615;DHT22;28754;47.700;7.924;2023-05-01T12:03:39;13.90;99.90
42615;DHT22;28754;47.700;7.924;2023-05-01T12:07:21;13.40;99.90
42615;DHT22;28754;47.700;7.924;2023-05-01T12:10:09;13.20;99.90
42615;DHT22;28754;47.700;7.924;2023-05-01T12:13:07;13.60;99.90
42615;DHT22;28754;47.700;7.924;2023-05-01T12:56:41;12.80;99.90
42615;DHT22;28754;47.700;7.924;2023-05-01T13:00:23;12.70;99.90
42615;DHT22;28754;47.700;7.924;2023-05-01T13:10:32;13.20;99.90
42615;DHT22;28754;47.700;7.924;2023-05-01T13:13:27;13.30;99.90
42615;DHT22;28754;47.700;7.924;2023-05-01T13:20:37;13.00;99.90
42615;DHT22;28754;47.700;7.924;2023-05-01T13:28:24;12.90;99.90
42615;DHT22;28754;47.700;7.924;2023-05-01T13:31:34;13.50;99.90
42615;DHT22;28754;47.700;7.924;2023-05-01T13:34:29;13.90;99.90
42615;DHT22;28754;47.700;7.924;2023-05-01T13:37:18;14.20;99.90
42615;DHT22;28754;47.700;7.924;2023-05-01T13:40:07;14.10;99.90
42615;DHT22;28754;47.700;7.924;2023-05-01T13:42:54;13.80;99.90
42615;DHT22;28754;47.700;7.924;2023-05-01T13:45:40;13.70;99.90
42615;DHT22;28754;47.700;7.924;2023-05-01T13:48:29;13.70;99.90
42615;DHT22;28754;47.700;7.924;2023-05-01T13:51:24;13.70;99.90
42615;DHT22;28754;47.700;7.924;2023-05-01T13:54:12;13.70;99.90
42615;DHT22;28754;47.700;7.924;2023-05-01T13:57:00;13.50;99.90
42615;DHT22;28754;47.700;7.924;2023-05-01T13:59:47;12.70;99.90
42615;DHT22;28754;47.700;7.924;2023-05-01T14:02:37;12.20;99.90
42615;DHT22;28754;47.700;7.924;2023-05-01T14:05:28;12.00;99.90
42615;DHT22;28754;47.700;7.924;2023-05-01T14:08:19;11.90;99.90
42615;DHT22;28754;47.700;7.924;2023-05-01T14:11:10;11.90;99.90
42615;DHT22;28754;47.700;7.924;2023-05-01T14:14:32;12.40;99.90
42615;DHT22;28754;47.700;7.924;2023-05-01T14:21:01;13.20;99.90
42615;DHT22;28754;47.700;7.924;2023-05-01T14:23:51;13.50;99.90
42615;DHT22;28754;47.700;7.924;2023-05-01T14:26:44;13.80;99.90
42615;DHT22;28754;47.700;7.924;2023-05-01T14:30:04;14.30;99.90
42615;DHT22;28754;47.700;7.924;2023-05-01T14:32:56;15.00;99.90
42615;DHT22;28754;47.700;7.924;2023-05-01T14:35:47;15.20;99.90
42615;DHT22;28754;47.700;7.924;2023-05-01T14:38:36;15.50;99.90
42615;DHT22;28754;47.700;7.924;2023-05-01T14:41:28;15.60;99.90
42615;DHT22;28754;47.700;7.924;2023-05-01T14:44:18;14.70;99.90
42615;DHT22;28754;47.700;7.924;2023-05-01T14:47:08;14.70;99.90
42615;DHT22;28754;47.700;7.924;2023-05-01T14:49:57;14.40;99.90
42615;DHT22;28754;47.700;7.924;2023-05-01T14:52:58;14.00;99.90
42615;DHT22;28754;47.700;7.924;2023-05-01T14:56:18;14.00;99.90
42615;DHT22;28754;47.700;7.924;2023-05-01T15:00:09;13.90;99.90
42615;DHT22;28754;47.700;7.924;2023-05-01T15:16:31;13.00;99.90
42615;DHT22;28754;47.700;7.924;2023-05-01T15:19:20;12.80;99.90
42615;DHT22;28754;47.700;7.924;2023-05-01T15:22:13;12.80;99.90
42615;DHT22;28754;47.700;7.924;2023-05-01T15:25:10;13.00;99.90
42615;DHT22;28754;47.700;7.924;2023-05-01T15:27:57;13.20;99.90
42615;DHT22;28754;47.700;7.924;2023-05-01T15:30:45;13.60;99.90
42615;DHT22;28754;47.700;7.924;2023-05-01T15:34:03;14.30;99.90
42615;DHT22;28754;47.700;7.924;2023-05-01T15:36:59;14.10;99.90
42615;DHT22;28754;47.700;7.924;2023-05-01T15:40:03;13.90;99.90
42615;DHT22;28754;47.700;7.924;2023-05-01T15:43:24;13.70;99.90
42615;DHT22;28754;47.700;7.924;2023-05-01T15:46:11;13.50;99.90
42615;DHT22;28754;47.700;7.924;2023-05-01T15:49:00;13.40;99.90
42615;DHT22;28754;47.700;7.924;2023-05-01T15:51:46;13.00;99.90
42615;DHT22;28754;47.700;7.924;2023-05-01T15:54:33;12.90;99.90
42615;DHT22;28754;47.700;7.924;2023-05-01T15:57:20;13.10;99.90
42615;DHT22;28754;47.700;7.924;2023-05-01T16:00:08;13.10;99.90
42615;DHT22;28754;47.700;7.924;2023-05-01T16:02:55;13.10;99.90
42615;DHT22;28754;47.700;7.924;2023-05-01T16:05:44;12.80;99.90
42615;DHT22;28754;47.700;7.924;2023-05-01T16:08:32;13.10;99.90
42615;DHT22;28754;47.700;7.924;2023-05-01T16:11:19;12.70;99.90
42615;DHT22;28754;47.700;7.924;2023-05-01T16:14:09;12.50;99.90
42615;DHT22;28754;47.700;7.924;2023-05-01T16:16:58;12.60;99.90
42615;DHT22;28754;47.700;7.924;2023-05-01T16:19:45;12.60;99.90
42615;DHT22;28754;47.700;7.924;2023-05-01T16:22:33;12.50;99.90
42615;DHT22;28754;47.700;7.924;2023-05-01T16:25:19;12.70;99.90
42615;DHT22;28754;47.700;7.924;2023-05-01T16:28:12;12.70;99.90
42615;DHT22;28754;47.700;7.924;2023-05-01T16:31:01;12.50;99.90
42615;DHT22;28754;47.700;7.924;2023-05-01T16:33:53;12.50;99.90
42615;DHT22;28754;47.700;7.924;2023-05-01T16:36:40;12.50;99.90
42615;DHT22;28754;47.700;7.924;2023-05-01T16:39:35;12.60;99.90
42615;DHT22;28754;47.700;7.924;2023-05-01T16:42:25;13.00;99.90
42615;DHT22;28754;47.700;7.924;2023-05-01T16:45:14;13.20;99.90
42615;DHT22;28754;47.700;7.924;2023-05-01T16:48:22;13.10;99.90
42615;DHT22;28754;47.700;7.924;2023-05-01T16:51:22;13.00;99.90
42615;DHT22;28754;47.700;7.924;2023-05-01T16:54:13;13.00;99.90
42615;DHT22;28754;47.700;7.924;2023-05-01T16:57:06;13.00;99.90
42615;DHT22;28754;47.700;7.924;2023-05-01T17:00:08;13.10;99.90
42615;DHT22;28754;47.700;7.924;2023-05-01T17:03:03;12.70;99.90
42615;DHT22;28754;47.700;7.924;2023-05-01T17:05:50;12.70;99.90
42615;DHT22;28754;47.700;7.924;2023-05-01T17:08:39;12.70;99.90
42615;DHT22;28754;47.700;7.924;2023-05-01T17:11:26;12.90;99.90
42615;DHT22;28754;47.700;7.924;2023-05-01T17:14:21;13.00;99.90
42615;DHT22;28754;47.700;7.924;2023-05-01T17:17:15;13.00;99.90
42615;DHT22;28754;47.700;7.924;2023-05-01T17:20:03;13.20;99.90
42615;DHT22;28754;47.700;7.924;2023-05-01T17:22:51;13.20;99.90
42615;DHT22;28754;47.700;7.924;2023-05-01T17:25:56;13.20;99.90
42615;DHT22;28754;47.700;7.924;2023-05-01T17:28:51;13.30;99.90
42615;DHT22;28754;47.700;7.924;2023-05-01T17:31:41;13.20;99.90
42615;DHT22;28754;47.700;7.924;2023-05-01T17:34:27;13.20;99.90
42615;DHT22;28754;47.700;7.924;2023-05-01T17:37:14;13.20;99.90
42615;DHT22;28754;47.700;7.924;2023-05-01T17:40:01;13.10;99.90
42615;DHT22;28754;47.700;7.924;2023-05-01T17:42:51;13.00;99.90
42615;DHT22;28754;47.700;7.924;2023-05-01T17:45:38;12.80;99.90
42615;DHT22;28754;47.700;7.924;2023-05-01T17:48:25;12.80;99.90
42615;DHT22;28754;47.700;7.924;2023-05-01T17:51:18;12.80;99.90
42615;DHT22;28754;47.700;7.924;2023-05-01T17:57:58;12.80;99.90
42615;DHT22;28754;47.700;7.924;2023-05-01T18:01:03;12.50;99.90
42615;DHT22;28754;47.700;7.924;2023-05-01T18:03:53;12.50;99.90
42615;DHT22;28754;47.700;7.924;2023-05-01T18:06:40;12.50;99.90
42615;DHT22;28754;47.700;7.924;2023-05-01T18:09:27;12.60;99.90
42615;DHT22;28754;47.700;7.924;2023-05-01T18:12:14;12.60;99.90
42615;DHT22;28754;47.700;7.924;2023-05-01T18:15:03;12.60;99.90
42615;DHT22;28754;47.700;7.924;2023-05-01T18:17:50;12.60;99.90
42615;DHT22;28754;47.700;7.924;2023-05-01T18:20:37;12.60;99.90
42615;DHT22;28754;47.700;7.924;2023-05-01T18:23:24;12.50;99.90
42615;DHT22;28754;47.700;7.924;2023-05-01T18:26:11;12.60;99.90
42615;DHT22;28754;47.700;7.924;2023-05-01T18:28:57;12.50;99.90
42615;DHT22;28754;47.700;7.924;2023-05-01T18:31:44;12.50;99.90
42615;DHT22;28754;47.700;7.924;2023-05-01T18:34:34;12.50;99.90
42615;DHT22;28754;47.700;7.924;2023-05-01T18:37:25;12.50;99.90
42615;DHT22;28754;47.700;7.924;2023-05-01T18:40:18;12.50;99.90
42615;DHT22;28754;47.700;7.924;2023-05-01T18:43:05;12.40;99.90
42615;DHT22;28754;47.700;7.924;2023-05-01T18:45:52;12.30;99.90
42615;DHT22;28754;47.700;7.924;2023-05-01T18:48:57;12.20;99.90
42615;DHT22;28754;47.700;7.924;2023-05-01T18:51:47;12.10;99.90
42615;DHT22;28754;47.700;7.924;2023-05-01T18:55:03;12.20;99.90
42615;DHT22;28754;47.700;7.924;2023-05-01T19:07:33;11.90;99.90
42615;DHT22;28754;47.700;7.924;2023-05-01T19:10:30;11.70;99.90
42615;DHT22;28754;47.700;7.924;2023-05-01T19:13:28;11.50;99.90
42615;DHT22;28754;47.700;7.924;2023-05-01T19:16:15;11.60;99.90
42615;DHT22;28754;47.700;7.924;2023-05-01T19:19:02;11.70;99.90
42615;DHT22;28754;47.700;7.924;2023-05-01T19:21:56;11.80;99.90
42615;DHT22;28754;47.700;7.924;2023-05-01T19:29:22;11.80;99.90
42615;DHT22;28754;47.700;7.924;2023-05-01T19:32:09;11.70;99.90
42615;DHT22;28754;47.700;7.924;2023-05-01T19:35:02;11.70;99.90
42615;DHT22;28754;47.700;7.924;2023-05-01T19:37:56;11.70;99.90
42615;DHT22;28754;47.700;7.924;2023-05-01T19:40:46;11.70;99.90
42615;DHT22;28754;47.700;7.924;2023-05-01T19:43:33;11.70;99.90
42615;DHT22;28754;47.700;7.924;2023-05-01T20:27:16;11.60;99.90
42615;DHT22;28754;47.700;7.924;2023-05-01T20:30:07;11.50;99.90
42615;DHT22;28754;47.700;7.924;2023-05-01T20:42:00;11.20;99.90
42615;DHT22;28754;47.700;7.924;2023-05-01T20:49:47;11.10;99.90
42615;DHT22;28754;47.700;7.924;2023-05-01T21:11:20;10.90;99.90
42615;DHT22;28754;47.700;7.924;2023-05-01T21:15:20;10.90;99.90
42615;DHT22;28754;47.700;7.924;2023-05-01T21:18:13;10.90;99.90
42615;DHT22;28754;47.700;7.924;2023-05-01T21:22:16;11.00;99.90
42615;DHT22;28754;47.700;7.924;2023-05-01T21:26:01;11.00;99.90
42615;DHT22;28754;47.700;7.924;2023-05-01T21:33:45;10.90;99.90
42615;DHT22;28754;47.700;7.924;2023-05-01T21:36:32;10.70;99.90
42615;DHT22;28754;47.700;7.924;2023-05-01T21:39:27;10.80;99.90
42615;DHT22;28754;47.700;7.924;2023-05-01T21:42:16;10.90;99.90
42615;DHT22;28754;47.700;7.924;2023-05-01T21:45:11;10.80;99.90
42615;DHT22;28754;47.700;7.924;2023-05-01T21:47:59;10.60;99.90
42615;DHT22;28754;47.700;7.924;2023-05-01T21:50:47;10.60;99.90
42615;DHT22;28754;47.700;7.924;2023-05-01T21:53:35;10.70;99.90
42615;DHT22;28754;47.700;7.924;2023-05-01T21:56:25;10.80;99.90
42615;DHT22;28754;47.700;7.924;2023-05-01T21:59:13;10.90;99.90
42615;DHT22;28754;47.700;7.924;2023-05-01T22:02:06;10.90;99.90
42615;DHT22;28754;47.700;7.924;2023-05-01T22:04:54;10.90;99.90
42615;DHT22;28754;47.700;7.924;2023-05-01T22:07:45;10.90;99.90
42615;DHT22;28754;47.700;7.924;2023-05-01T22:10:32;10.90;99.90
42615;DHT22;28754;47.700;7.924;2023-05-01T22:13:19;10.90;99.90
42615;DHT22;28754;47.700;7.924;2023-05-01T22:16:06;10.80;99.90
42615;DHT22;28754;47.700;7.924;2023-05-01T22:18:53;10.80;99.90
42615;DHT22;28754;47.700;7.924;2023-05-01T22:21:40;10.70;99.90
42615;DHT22;28754;47.700;7.924;2023-05-01T22:24:26;10.70;99.90
42615;DHT22;28754;47.700;7.924;2023-05-01T22:27:13;10.70;99.90
42615;DHT22;28754;47.700;7.924;2023-05-01T22:30:02;10.60;99.90
42615;DHT22;28754;47.700;7.924;2023-05-01T22:32:50;10.60;99.90
42615;DHT22;28754;47.700;7.924;2023-05-01T22:35:36;10.50;99.90
42615;DHT22;28754;47.700;7.924;2023-05-01T22:38:23;10.50;99.90
42615;DHT22;28754;47.700;7.924;2023-05-01T22:41:10;10.50;99.90
42615;DHT22;28754;47.700;7.924;2023-05-01T22:43:56;10.50;99.90
42615;DHT22;28754;47.700;7.924;2023-05-01T22:46:43;10.40;99.90
42615;DHT22;28754;47.700;7.924;2023-05-01T22:49:30;10.40;99.90
42615;DHT22;28754;47.700;7.924;2023-05-01T22:52:17;10.50;99.90
42615;DHT22;28754;47.700;7.924;2023-05-01T22:55:04;10.60;99.90
42615;DHT22;28754;47.700;7.924;2023-05-01T22:57:52;10.60;99.90
42615;DHT22;28754;47.700;7.924;2023-05-01T23:00:38;10.60;99.90
42615;DHT22;28754;47.700;7.924;2023-05-01T23:03:25;10.50;99.90
42615;DHT22;28754;47.700;7.924;2023-05-01T23:06:12;10.50;99.90
42615;DHT22;28754;47.700;7.924;2023-05-01T23:08:59;10.40;99.90
42615;DHT22;28754;47.700;7.924;2023-05-01T23:11:45;10.40;99.90
42615;DHT22;28754;47.700;7.924;2023-05-01T23:14:35;10.50;99.90
42615;DHT22;28754;47.700;7.924;2023-05-01T23:17:32;10.50;99.90
42615;DHT22;28754;47.700;7.924;2023-05-01T23:20:22;10.50;99.90
42615;DHT22;28754;47.700;7.924;2023-05-01T23:23:12;10.50;99.90
42615;DHT22;28754;47.700;7.924;2023-05-01T23:26:00;10.50;99.90
42615;DHT22;28754;47.700;7.924;2023-05-01T23:28:47;10.60;99.90
42615;DHT22;28754;47.700;7.924;2023-05-01T23:31:34;10.60;99.90
42615;DHT22;28754;47.700;7.924;2023-05-01T23:34:21;10.60;99.90
42615;DHT22;28754;47.700;7.924;2023-05-01T23:37:08;10.60;99.90
42615;DHT22;28754;47.700;7.924;2023-05-01T23:39:54;10.70;99.90
42615;DHT22;28754;47.700;7.924;2023-05-01T23:42:44;10.70;99.90
42615;DHT22;28754;47.700;7.924;2023-05-01T23:45:31;10.80;99.90
42615;DHT22;28754;47.700;7.924;2023-05-01T23:48:18;10.80;99.90
42615;DHT22;28754;47.700;7.924;2023-05-01T23:51:05;10.80;99.90
42615;DHT22;28754;47.700;7.924;2023-05-01T23:53:52;10.50;99.90